Time;durP1;ratioP1;P1;durP2;ratioP2;P2;SDS_P1;SDS_P2;PMS_P1;PMS_P2;Temp;Humidity;BMP_temperature;BMP_pressure;BME280_temperature;BME280_humidity;BME280_pressure;Samples;Min_cycle;Max_cycle;Signal;HPM_P1;HPM_P2
2022/10/12 00:00:41;;;;;;;;;;;;;;;17.24;66.00;95982.84;5050027;28;20525;-72
2022/10/12 00:03:06;;;;;;;;;;;;;;;17.02;65.82;95978.53;5052425;28;20132;-71
2022/10/12 00:05:31;;;;;;;;;;;;;;;16.54;67.72;95979.66;5049918;28;20017;-75
2022/10/12 00:07:57;;;;;;;;;;;;;;;17.18;66.12;95978.75;5051472;28;20501;-72
2022/10/12 00:10:22;;;;;;;;;;;;;;;17.48;65.43;95983.00;5051030;28;20381;-72
2022/10/12 00:12:47;;;;;;;;;;;;;;;17.62;64.68;95978.16;5051979;28;20485;-73
2022/10/12 00:15:12;;;;;;;;;;;;;;;17.63;63.98;95976.25;5050105;28;20017;-73
2022/10/12 00:17:38;;;;;;;;;;;;;;;17.68;63.84;95976.84;5034259;28;20017;-72
2022/10/12 00:20:03;;;;;;;;;;;;;;;16.61;66.79;95975.34;5044920;28;20035;-72
2022/10/12 00:22:29;;;;;;;;;;;;;;;17.00;66.18;95976.19;5051706;28;20375;-73
2022/10/12 00:24:54;;;;;;;;;;;;;;;16.98;66.12;95975.69;5050116;28;20014;-72
2022/10/12 00:27:19;;;;;;;;;;;;;;;16.59;67.37;95974.91;5050322;28;20489;-72
2022/10/12 00:29:45;;;;;;;;;;;;;;;16.54;67.75;95971.59;5050371;28;20502;-72
2022/10/12 00:32:10;;;;;;;;;;;;;;;17.02;66.57;95973.94;5048599;28;20405;-72
2022/10/12 00:34:35;;;;;;;;;;;;;;;17.39;65.85;95969.59;5049236;28;20017;-72
2022/10/12 00:37:00;;;;;;;;;;;;;;;17.28;65.08;95970.31;5050567;28;20470;-72
2022/10/12 00:39:25;;;;;;;;;;;;;;;17.65;64.83;95972.09;5045336;28;20010;-72
2022/10/12 00:41:51;;;;;;;;;;;;;;;17.07;65.29;95968.38;5047007;28;20477;-72
2022/10/12 00:44:31;;;;;;;;;;;;;;;17.31;65.16;95965.09;5050456;28;20013;-72
2022/10/12 00:46:57;;;;;;;;;;;;;;;17.10;65.47;95972.34;5048831;28;20013;-72
2022/10/12 00:49:24;;;;;;;;;;;;;;;17.31;65.02;95969.69;5046020;28;20009;-72
2022/10/12 00:51:54;;;;;;;;;;;;;;;17.37;65.10;95977.22;5046329;28;20060;-72
2022/10/12 00:54:26;;;;;;;;;;;;;;;17.78;64.15;95974.91;5049581;28;20017;-72
2022/10/12 00:56:52;;;;;;;;;;;;;;;17.83;63.60;95972.78;5050488;28;20013;-72
2022/10/12 00:59:20;;;;;;;;;;;;;;;17.98;63.15;95976.78;5050048;28;20013;-73
2022/10/12 01:01:45;;;;;;;;;;;;;;;18.09;62.63;95977.16;5049420;28;20076;-73
2022/10/12 01:04:11;;;;;;;;;;;;;;;18.06;62.27;95972.44;5048469;28;20490;-72
2022/10/12 01:06:36;;;;;;;;;;;;;;;18.00;62.20;95971.84;5048256;28;20767;-73
2022/10/12 01:09:02;;;;;;;;;;;;;;;17.99;61.99;95972.97;5050592;28;20005;-72
2022/10/12 01:11:27;;;;;;;;;;;;;;;17.77;62.81;95968.75;5049139;28;20049;-73
2022/10/12 01:13:53;;;;;;;;;;;;;;;18.06;62.18;95965.13;5050361;28;20045;-72
2022/10/12 01:16:27;;;;;;;;;;;;;;;18.13;61.72;95973.47;5048950;28;20477;-73
2022/10/12 01:18:57;;;;;;;;;;;;;;;18.05;61.74;95971.63;5044692;28;20009;-73
2022/10/12 01:21:23;;;;;;;;;;;;;;;18.22;61.47;95967.19;5040360;28;20010;-73
2022/10/12 01:24:03;;;;;;;;;;;;;;;18.26;61.27;95966.22;5044716;28;20083;-73
2022/10/12 01:26:31;;;;;;;;;;;;;;;18.34;60.92;95965.34;5049690;28;20006;-72
2022/10/12 01:29:17;;;;;;;;;;;;;;;18.34;60.88;95956.47;5049982;28;20053;-72
2022/10/12 01:31:48;;;;;;;;;;;;;;;18.42;60.67;95958.28;5049787;28;20465;-72
2022/10/12 01:34:16;;;;;;;;;;;;;;;18.51;60.41;95961.66;5049863;28;20013;-72
2022/10/12 01:36:43;;;;;;;;;;;;;;;18.57;60.27;95951.44;5047414;28;20075;-72
2022/10/12 01:39:17;;;;;;;;;;;;;;;18.60;60.01;95956.97;5050114;28;20010;-73
2022/10/12 01:41:54;;;;;;;;;;;;;;;18.60;59.96;95965.06;5064708;28;20013;-73
2022/10/12 01:44:20;;;;;;;;;;;;;;;18.65;59.84;95955.97;5049961;28;20097;-73
2022/10/12 01:46:45;;;;;;;;;;;;;;;18.68;59.92;95963.41;5047153;28;20009;-73
2022/10/12 01:49:11;;;;;;;;;;;;;;;18.76;59.65;95967.13;5048929;28;20064;-72
2022/10/12 01:51:36;;;;;;;;;;;;;;;18.78;59.29;95965.66;5048299;28;20063;-73
2022/10/12 01:54:20;;;;;;;;;;;;;;;18.75;59.36;95962.84;5048362;28;20035;-72
2022/10/12 01:57:00;;;;;;;;;;;;;;;18.77;59.39;95968.69;5047819;28;20014;-72
2022/10/12 01:59:41;;;;;;;;;;;;;;;18.76;59.34;95959.03;5049780;28;20167;-73
2022/10/12 02:02:15;;;;;;;;;;;;;;;18.80;59.34;95968.03;5045436;28;20052;-73
2022/10/12 02:04:47;;;;;;;;;;;;;;;18.85;59.03;95962.41;5048077;28;20013;-73
2022/10/12 02:07:35;;;;;;;;;;;;;;;18.89;59.16;95961.41;5050146;28;20107;-72
2022/10/12 02:10:02;;;;;;;;;;;;;;;18.86;59.11;95959.38;5036985;28;20010;-73
2022/10/12 02:12:28;;;;;;;;;;;;;;;18.86;59.04;95953.19;5047451;28;20497;-73
2022/10/12 02:14:58;;;;;;;;;;;;;;;18.86;59.34;95955.91;5049843;28;20104;-72
2022/10/12 02:17:23;;;;;;;;;;;;;;;18.89;59.24;95960.63;5048061;28;20071;-73
2022/10/12 02:19:51;;;;;;;;;;;;;;;18.88;58.98;95959.03;5047649;28;20010;-72
2022/10/12 02:22:17;;;;;;;;;;;;;;;18.89;59.21;95950.63;5048607;28;20013;-73
2022/10/12 02:24:43;;;;;;;;;;;;;;;18.94;59.38;95952.31;5046703;28;20528;-72
2022/10/12 02:27:09;;;;;;;;;;;;;;;18.98;59.13;95957.78;5049906;28;20002;-72
2022/10/12 02:29:38;;;;;;;;;;;;;;;18.72;59.43;95958.91;5046943;28;20469;-73
2022/10/12 02:32:04;;;;;;;;;;;;;;;18.64;59.86;95952.50;5047642;28;20014;-74
2022/10/12 02:34:55;;;;;;;;;;;;;;;18.75;60.10;95952.88;5048016;28;20009;-73
2022/10/12 02:37:23;;;;;;;;;;;;;;;18.78;60.05;95951.38;5044520;28;20384;-74
2022/10/12 02:39:58;;;;;;;;;;;;;;;18.80;59.92;95952.63;5051721;28;20006;-73
2022/10/12 02:42:27;;;;;;;;;;;;;;;18.85;59.88;95948.94;5045958;28;20009;-73
2022/10/12 02:44:53;;;;;;;;;;;;;;;18.89;60.04;95947.16;5032479;28;20489;-74
2022/10/12 02:47:19;;;;;;;;;;;;;;;18.89;60.03;95947.94;5052182;28;20064;-73
2022/10/12 02:49:46;;;;;;;;;;;;;;;18.92;60.02;95943.75;5050699;28;20090;-73
2022/10/12 02:52:11;;;;;;;;;;;;;;;18.92;59.66;95938.38;5053068;28;20020;-73
2022/10/12 02:54:36;;;;;;;;;;;;;;;18.88;59.97;95938.25;5053447;28;20006;-74
2022/10/12 02:57:02;;;;;;;;;;;;;;;18.88;60.04;95938.25;5052538;28;20018;-73
2022/10/12 02:59:27;;;;;;;;;;;;;;;18.94;59.78;95933.44;5051384;28;20048;-74
2022/10/12 03:01:52;;;;;;;;;;;;;;;18.98;59.79;95938.94;5050391;28;20006;-72
2022/10/12 03:04:18;;;;;;;;;;;;;;;18.93;59.83;95938.03;5052265;28;20013;-72
2022/10/12 03:06:43;;;;;;;;;;;;;;;18.91;59.79;95929.50;5052557;28;20009;-73
2022/10/12 03:09:09;;;;;;;;;;;;;;;18.84;60.15;95928.50;5051688;28;20017;-72
2022/10/12 03:11:36;;;;;;;;;;;;;;;18.80;60.22;95936.47;5050097;28;20439;-72
2022/10/12 03:14:01;;;;;;;;;;;;;;;18.80;60.28;95935.69;5052094;28;20112;-73
2022/10/12 03:16:26;;;;;;;;;;;;;;;18.78;60.43;95933.31;5051044;28;20093;-72
2022/10/12 03:18:52;;;;;;;;;;;;;;;18.82;60.21;95936.91;5052765;28;20009;-72
2022/10/12 03:21:17;;;;;;;;;;;;;;;18.82;60.35;95930.72;5052266;28;20377;-72
2022/10/12 03:23:42;;;;;;;;;;;;;;;18.84;60.25;95929.28;5040072;28;20533;-72
2022/10/12 03:26:08;;;;;;;;;;;;;;;18.85;60.24;95935.47;5047542;28;20006;-72
2022/10/12 03:28:33;;;;;;;;;;;;;;;18.87;60.25;95933.97;5050671;28;20021;-72
2022/10/12 03:30:58;;;;;;;;;;;;;;;18.93;60.07;95931.84;5049798;28;20033;-72
2022/10/12 03:33:24;;;;;;;;;;;;;;;18.88;60.45;95935.56;5052993;28;20005;-72
2022/10/12 03:35:49;;;;;;;;;;;;;;;18.91;60.51;95934.09;5051371;28;20048;-72
2022/10/12 03:38:15;;;;;;;;;;;;;;;18.94;60.42;95944.22;5051589;28;20053;-72
2022/10/12 03:40:40;;;;;;;;;;;;;;;18.75;60.47;95935.91;5051699;28;20095;-72
2022/10/12 03:43:06;;;;;;;;;;;;;;;18.68;61.10;95941.84;5050472;28;20014;-72
2022/10/12 03:45:31;;;;;;;;;;;;;;;18.64;61.41;95939.00;5051407;28;20009;-73
2022/10/12 03:47:56;;;;;;;;;;;;;;;18.61;61.52;95939.69;5050244;28;20104;-73
2022/10/12 03:50:22;;;;;;;;;;;;;;;18.66;61.74;95936.75;5050402;28;20006;-73
2022/10/12 03:52:47;;;;;;;;;;;;;;;18.70;61.82;95939.59;5052452;28;20100;-72
2022/10/12 03:55:12;;;;;;;;;;;;;;;18.75;61.45;95936.69;5050564;28;20061;-73
2022/10/12 03:57:38;;;;;;;;;;;;;;;18.78;61.22;95941.38;5042751;28;20025;-73
2022/10/12 04:00:03;;;;;;;;;;;;;;;18.68;60.43;95939.94;5045584;28;20013;-72
2022/10/12 04:02:28;;;;;;;;;;;;;;;18.21;61.25;95952.16;5049884;28;20021;-73
2022/10/12 04:04:54;;;;;;;;;;;;;;;17.82;62.04;95948.91;5050012;28;20010;-72
2022/10/12 04:07:19;;;;;;;;;;;;;;;17.87;62.09;95946.03;5051054;28;20025;-72
2022/10/12 04:09:44;;;;;;;;;;;;;;;17.08;64.24;95950.34;5051212;28;20010;-71
2022/10/12 04:12:09;;;;;;;;;;;;;;;16.91;65.12;95947.78;5049730;28;20021;-73
2022/10/12 04:14:34;;;;;;;;;;;;;;;16.79;66.16;95941.19;5050823;28;20112;-73
2022/10/12 04:17:00;;;;;;;;;;;;;;;16.82;65.97;95937.06;5049984;28;20052;-73
2022/10/12 04:19:25;;;;;;;;;;;;;;;16.83;65.93;95944.00;5046537;28;20437;-73
2022/10/12 04:21:50;;;;;;;;;;;;;;;16.51;67.28;95951.53;5049220;28;20108;-73
2022/10/12 04:24:15;;;;;;;;;;;;;;;16.72;67.10;95948.16;5046210;28;20064;-74
2022/10/12 04:26:41;;;;;;;;;;;;;;;16.98;66.46;95950.72;5047963;28;20104;-75
2022/10/12 04:29:06;;;;;;;;;;;;;;;17.33;65.52;95948.63;5050151;28;20096;-74
2022/10/12 04:31:31;;;;;;;;;;;;;;;17.57;64.90;95948.75;5048766;28;20018;-71
2022/10/12 04:33:56;;;;;;;;;;;;;;;17.62;64.28;95956.63;5050026;28;20017;-70
2022/10/12 04:36:25;;;;;;;;;;;;;;;17.59;64.13;95959.97;5051320;28;20009;-68
2022/10/12 04:38:51;;;;;;;;;;;;;;;17.73;63.78;95948.97;5050244;28;20547;-69
2022/10/12 04:41:16;;;;;;;;;;;;;;;17.89;63.45;95954.53;5051097;28;20021;-68
2022/10/12 04:43:41;;;;;;;;;;;;;;;17.86;63.00;95955.19;5048476;28;20036;-71
2022/10/12 04:46:06;;;;;;;;;;;;;;;17.85;62.90;95959.00;5050247;28;20013;-68
2022/10/12 04:48:32;;;;;;;;;;;;;;;17.54;63.54;95954.78;5050963;28;20377;-70
2022/10/12 04:50:58;;;;;;;;;;;;;;;17.32;64.35;95966.66;5050172;28;20020;-70
2022/10/12 04:53:23;;;;;;;;;;;;;;;17.59;64.29;95961.88;5049239;28;20059;-68
2022/10/12 04:55:48;;;;;;;;;;;;;;;17.38;64.46;95954.59;5048516;28;20013;-69
2022/10/12 04:58:14;;;;;;;;;;;;;;;16.55;66.98;95957.84;5050806;28;20021;-73
2022/10/12 05:00:39;;;;;;;;;;;;;;;16.59;67.42;95955.31;5046371;28;20083;-72
2022/10/12 05:03:05;;;;;;;;;;;;;;;17.01;66.77;95958.94;5049084;28;20063;-72
2022/10/12 05:05:30;;;;;;;;;;;;;;;17.17;66.17;95953.00;5050009;28;20015;-71
2022/10/12 05:07:55;;;;;;;;;;;;;;;17.52;65.28;95962.41;5048541;28;20009;-72
2022/10/12 05:10:20;;;;;;;;;;;;;;;17.73;64.59;95950.88;5049888;28;20009;-72
2022/10/12 05:12:45;;;;;;;;;;;;;;;17.87;63.99;95956.78;5065363;28;20115;-72
2022/10/12 05:15:11;;;;;;;;;;;;;;;17.97;63.54;95950.22;5049485;28;20052;-72
2022/10/12 05:17:36;;;;;;;;;;;;;;;18.06;63.09;95953.59;5050147;28;20061;-71
2022/10/12 05:20:01;;;;;;;;;;;;;;;18.15;62.71;95951.59;5048830;28;20292;-71
2022/10/12 05:22:26;;;;;;;;;;;;;;;18.24;62.45;95960.38;5050675;28;20055;-72
2022/10/12 05:24:52;;;;;;;;;;;;;;;18.29;62.34;95948.59;5047685;28;20222;-72
2022/10/12 05:27:17;;;;;;;;;;;;;;;18.32;62.02;95964.09;5049401;28;20044;-72
2022/10/12 05:29:42;;;;;;;;;;;;;;;17.91;62.37;95960.38;5049343;28;20086;-72
2022/10/12 05:32:07;;;;;;;;;;;;;;;17.39;64.01;95963.44;5044151;28;20010;-72
2022/10/12 05:34:33;;;;;;;;;;;;;;;16.97;66.18;95963.38;5041206;28;20014;-72
2022/10/12 05:36:58;;;;;;;;;;;;;;;16.44;68.54;95966.59;5048527;28;20091;-73
2022/10/12 05:39:23;;;;;;;;;;;;;;;16.85;67.69;95965.97;5043451;28;20005;-72
2022/10/12 05:41:50;;;;;;;;;;;;;;;17.38;66.18;95967.25;5043941;28;20111;-73
2022/10/12 05:44:15;;;;;;;;;;;;;;;17.68;65.41;95963.38;5049865;28;20014;-72
2022/10/12 05:46:40;;;;;;;;;;;;;;;17.72;64.82;95960.84;5050112;28;20008;-71
2022/10/12 05:49:06;;;;;;;;;;;;;;;17.77;63.77;95968.75;5048726;28;20016;-69
2022/10/12 05:51:31;;;;;;;;;;;;;;;17.50;64.67;95972.69;5059682;28;20017;-68
2022/10/12 05:53:57;;;;;;;;;;;;;;;16.62;67.13;95974.25;5050868;28;20492;-68
2022/10/12 05:56:22;;;;;;;;;;;;;;;16.28;69.07;95977.06;5067970;28;20013;-69
2022/10/12 05:58:47;;;;;;;;;;;;;;;15.99;70.35;95983.88;5058458;28;20020;-69
2022/10/12 06:01:12;;;;;;;;;;;;;;;15.65;72.10;95986.56;5049950;28;20010;-70
2022/10/12 06:03:38;;;;;;;;;;;;;;;15.23;73.58;95973.56;5052184;28;20009;-67
2022/10/12 06:06:03;;;;;;;;;;;;;;;16.08;71.52;95992.72;5049157;28;20055;-69
2022/10/12 06:08:29;;;;;;;;;;;;;;;15.57;72.99;95991.59;5048717;28;20013;-68
2022/10/12 06:10:55;;;;;;;;;;;;;;;15.97;71.38;95990.66;5050183;28;20006;-72
2022/10/12 06:13:20;;;;;;;;;;;;;;;15.89;72.16;95989.56;5050516;28;20146;-67
2022/10/12 06:15:45;;;;;;;;;;;;;;;16.36;70.21;95986.97;5049276;28;20056;-70
2022/10/12 06:18:12;;;;;;;;;;;;;;;16.98;68.96;95975.69;5049071;28;20129;-65
2022/10/12 06:20:38;;;;;;;;;;;;;;;17.21;66.90;95988.88;5068967;28;20492;-66
2022/10/12 06:23:03;;;;;;;;;;;;;;;17.17;67.23;95986.03;5070070;28;20025;-67
2022/10/12 06:25:28;;;;;;;;;;;;;;;17.33;66.55;95992.44;5070515;28;20010;-68
2022/10/12 06:27:54;;;;;;;;;;;;;;;17.46;65.85;95996.00;5065897;28;20016;-68
2022/10/12 06:30:19;;;;;;;;;;;;;;;17.75;65.18;95997.84;5049886;28;20017;-68
2022/10/12 06:32:44;;;;;;;;;;;;;;;18.01;64.66;95994.94;5050320;28;20437;-68
2022/10/12 06:35:09;;;;;;;;;;;;;;;17.86;64.10;95998.25;5065762;28;20127;-68
2022/10/12 06:37:34;;;;;;;;;;;;;;;17.81;64.04;95990.38;5069033;28;20024;-68
2022/10/12 06:39:59;;;;;;;;;;;;;;;18.11;63.65;95993.75;5066748;28;20020;-68
2022/10/12 06:42:25;;;;;;;;;;;;;;;18.29;63.06;96002.47;5048797;28;20009;-68
2022/10/12 06:44:50;;;;;;;;;;;;;;;18.43;62.63;96003.75;5049913;28;20079;-68
2022/10/12 06:47:15;;;;;;;;;;;;;;;18.60;62.17;95999.28;5050144;28;20480;-69
2022/10/12 06:49:40;;;;;;;;;;;;;;;18.79;61.54;96001.50;5058639;28;20024;-70
2022/10/12 06:52:05;;;;;;;;;;;;;;;18.82;60.92;96000.81;5069877;28;20060;-75
2022/10/12 06:54:31;;;;;;;;;;;;;;;18.76;60.69;95997.56;5069967;28;20427;-75
2022/10/12 06:56:56;;;;;;;;;;;;;;;18.57;60.82;96005.34;5069581;28;20017;-75
2022/10/12 06:59:24;;;;;;;;;;;;;;;18.62;61.04;96000.53;5058453;28;20017;-75
2022/10/12 07:01:49;;;;;;;;;;;;;;;18.50;61.20;96000.50;5044137;28;20104;-75
2022/10/12 07:04:18;;;;;;;;;;;;;;;18.76;60.33;96002.16;5047680;28;20155;-75
2022/10/12 07:06:43;;;;;;;;;;;;;;;18.48;60.71;96002.75;5043754;28;20066;-74
2022/10/12 07:09:08;;;;;;;;;;;;;;;18.38;61.43;95995.88;5061187;28;20108;-74
2022/10/12 07:11:33;;;;;;;;;;;;;;;18.41;61.38;96002.50;5047800;28;20522;-73
2022/10/12 07:13:58;;;;;;;;;;;;;;;17.97;62.76;96004.81;5047247;28;20151;-72
2022/10/12 07:16:24;;;;;;;;;;;;;;;18.27;62.22;96002.81;5048538;28;20144;-74
2022/10/12 07:18:49;;;;;;;;;;;;;;;18.36;61.85;95998.09;5049006;28;20379;-73
2022/10/12 07:21:15;;;;;;;;;;;;;;;18.94;61.16;96006.22;5048562;28;20069;-73
2022/10/12 07:23:40;;;;;;;;;;;;;;;18.86;60.15;96001.72;5048710;28;20072;-74
2022/10/12 07:26:06;;;;;;;;;;;;;;;18.78;60.31;96008.00;5052493;28;20464;-74
2022/10/12 07:28:32;;;;;;;;;;;;;;;18.57;60.32;96011.50;5052743;28;20422;-72
2022/10/12 07:31:05;;;;;;;;;;;;;;;17.97;62.47;96012.91;5050527;28;20013;-73
2022/10/12 07:33:31;;;;;;;;;;;;;;;17.99;62.81;96018.72;5052914;28;20014;-73
2022/10/12 07:35:57;;;;;;;;;;;;;;;18.24;62.65;96016.16;5050988;28;20071;-74
2022/10/12 07:38:22;;;;;;;;;;;;;;;18.35;61.92;96022.69;5052427;28;20013;-73
2022/10/12 07:40:47;;;;;;;;;;;;;;;18.51;61.34;96020.16;5051172;28;20010;-73
2022/10/12 07:43:12;;;;;;;;;;;;;;;18.33;61.44;96020.34;5051750;28;20406;-73
2022/10/12 07:45:38;;;;;;;;;;;;;;;18.41;60.87;96029.44;5052806;28;20085;-73
2022/10/12 07:48:03;;;;;;;;;;;;;;;17.97;62.07;96025.56;5051051;28;20009;-73
2022/10/12 07:50:28;;;;;;;;;;;;;;;18.09;63.01;96028.31;5050925;28;20056;-73
2022/10/12 07:52:54;;;;;;;;;;;;;;;18.67;61.47;96032.66;5050491;28;20112;-72
2022/10/12 07:55:19;;;;;;;;;;;;;;;18.67;60.80;96024.56;5052592;28;20413;-74
2022/10/12 07:57:44;;;;;;;;;;;;;;;18.85;60.31;96024.41;5052215;28;20478;-73
2022/10/12 08:00:09;;;;;;;;;;;;;;;18.18;61.74;96032.50;5051902;28;20476;-73
2022/10/12 08:02:35;;;;;;;;;;;;;;;18.28;61.23;96027.84;5049962;28;20549;-73
2022/10/12 08:05:00;;;;;;;;;;;;;;;18.09;61.92;96037.19;5050952;28;20009;-73
2022/10/12 08:07:26;;;;;;;;;;;;;;;18.00;61.63;96025.69;5052404;28;20359;-73
2022/10/12 08:09:51;;;;;;;;;;;;;;;18.12;61.65;96024.97;5051709;28;20482;-73
2022/10/12 08:12:16;;;;;;;;;;;;;;;18.73;60.35;96024.38;5052189;28;20041;-73
2022/10/12 08:14:41;;;;;;;;;;;;;;;18.74;59.94;96031.38;5051287;28;20033;-73
2022/10/12 08:17:07;;;;;;;;;;;;;;;18.69;60.02;96032.34;5052143;28;20021;-74
2022/10/12 08:19:34;;;;;;;;;;;;;;;18.82;59.75;96033.16;5051636;28;20500;-73
2022/10/12 08:21:59;;;;;;;;;;;;;;;19.15;58.58;96030.41;5051905;28;20604;-73
2022/10/12 08:24:24;;;;;;;;;;;;;;;19.41;57.90;96024.66;5052089;28;20009;-73
2022/10/12 08:26:50;;;;;;;;;;;;;;;18.48;59.89;96035.09;5049612;28;20017;-73
2022/10/12 08:29:15;;;;;;;;;;;;;;;18.92;59.37;96030.81;5051479;28;20013;-73
2022/10/12 08:31:40;;;;;;;;;;;;;;;19.17;58.58;96028.91;5050206;28;20010;-73
2022/10/12 08:34:05;;;;;;;;;;;;;;;19.40;57.16;96036.56;5050705;28;20012;-74
2022/10/12 08:36:31;;;;;;;;;;;;;;;19.53;57.34;96035.41;5050282;28;20014;-73
2022/10/12 08:38:56;;;;;;;;;;;;;;;19.08;58.29;96030.94;5049132;28;20013;-73
2022/10/12 08:41:37;;;;;;;;;;;;;;;17.84;63.23;96040.84;5050049;28;20010;-74
2022/10/12 08:44:21;;;;;;;;;;;;;;;17.46;64.54;96038.25;5049884;28;20505;-73
2022/10/12 08:46:47;;;;;;;;;;;;;;;17.85;63.44;96042.44;5051305;28;20005;-74
2022/10/12 08:49:21;;;;;;;;;;;;;;;17.45;65.30;96048.19;5051047;28;20013;-73
2022/10/12 08:51:54;;;;;;;;;;;;;;;17.08;66.32;96042.53;5048721;28;20362;-73
2022/10/12 08:54:21;;;;;;;;;;;;;;;16.81;67.64;96041.06;5051444;28;20520;-72
2022/10/12 08:56:46;;;;;;;;;;;;;;;16.82;67.69;96045.31;5051009;28;20010;-73
2022/10/12 08:59:12;;;;;;;;;;;;;;;17.14;66.84;96049.28;5050731;28;20005;-73
2022/10/12 09:01:37;;;;;;;;;;;;;;;17.39;65.92;96046.81;5050263;28;20016;-73
2022/10/12 09:04:09;;;;;;;;;;;;;;;17.23;66.40;96045.78;5049609;28;20021;-73
2022/10/12 09:06:40;;;;;;;;;;;;;;;17.99;63.77;96051.03;5050903;28;20163;-73
2022/10/12 09:09:18;;;;;;;;;;;;;;;17.85;64.00;96048.59;5050728;28;20016;-73
2022/10/12 09:11:43;;;;;;;;;;;;;;;17.49;64.63;96048.34;5050890;28;20012;-73
2022/10/12 09:14:12;;;;;;;;;;;;;;;18.30;63.48;96047.91;5050118;28;20373;-74
2022/10/12 09:16:42;;;;;;;;;;;;;;;18.99;60.69;96049.16;5050544;28;20033;-73
2022/10/12 09:19:26;;;;;;;;;;;;;;;18.43;61.05;96046.06;5050266;28;20006;-73
2022/10/12 09:21:51;;;;;;;;;;;;;;;19.07;59.59;96037.47;5048916;28;20017;-72
2022/10/12 09:24:19;;;;;;;;;;;;;;;19.67;57.73;96046.69;5050131;28;20013;-72
2022/10/12 09:26:45;;;;;;;;;;;;;;;19.48;57.93;96036.44;5050514;28;20005;-72
2022/10/12 09:29:23;;;;;;;;;;;;;;;18.94;58.25;96043.97;5048784;28;20079;-73
2022/10/12 09:32:06;;;;;;;;;;;;;;;19.22;58.04;96052.19;5049794;28;20018;-72
2022/10/12 09:34:32;;;;;;;;;;;;;;;20.00;56.58;96043.78;5049865;28;20116;-73
2022/10/12 09:36:57;;;;;;;;;;;;;;;20.65;54.87;96038.25;5050407;28;20557;-73
2022/10/12 09:39:31;;;;;;;;;;;;;;;21.28;53.75;96038.28;5048497;28;20489;-73
2022/10/12 09:41:56;;;;;;;;;;;;;;;21.28;51.62;96040.97;5050408;28;20006;-74
2022/10/12 09:44:27;;;;;;;;;;;;;;;21.12;52.10;96032.09;5048246;28;20021;-74
2022/10/12 09:47:03;;;;;;;;;;;;;;;21.48;51.73;96036.44;5048324;28;20104;-75
2022/10/12 09:49:45;;;;;;;;;;;;;;;21.93;50.42;96037.81;5048985;28;20009;-74
2022/10/12 09:52:16;;;;;;;;;;;;;;;20.97;51.32;96041.00;5048936;28;20010;-75
2022/10/12 09:54:46;;;;;;;;;;;;;;;19.54;55.45;96039.69;5047613;28;20014;-75
2022/10/12 09:57:19;;;;;;;;;;;;;;;19.96;55.16;96039.41;5028940;28;20383;-75
2022/10/12 09:59:45;;;;;;;;;;;;;;;20.10;54.41;96031.72;5029855;28;20013;-74
2022/10/12 10:02:16;;;;;;;;;;;;;;;19.79;55.25;96036.97;5030139;28;20006;-73
2022/10/12 10:04:42;;;;;;;;;;;;;;;20.82;53.09;96033.66;5044904;28;20028;-72
2022/10/12 10:07:20;;;;;;;;;;;;;;;21.43;51.90;96030.53;5048980;28;20010;-73
2022/10/12 10:09:46;;;;;;;;;;;;;;;21.91;50.15;96036.63;5049622;28;20423;-74
2022/10/12 10:12:25;;;;;;;;;;;;;;;22.35;49.09;96030.94;5049949;28;20009;-73
2022/10/12 10:14:52;;;;;;;;;;;;;;;22.23;47.99;96034.59;5048339;28;20062;-74
2022/10/12 10:17:47;;;;;;;;;;;;;;;20.52;51.89;96036.75;5048704;28;20199;-74
2022/10/12 10:20:21;;;;;;;;;;;;;;;21.92;50.00;96021.94;5044364;28;20431;-75
2022/10/12 10:22:47;;;;;;;;;;;;;;;22.51;48.75;96037.84;5048905;28;20497;-75
2022/10/12 10:25:18;;;;;;;;;;;;;;;23.03;47.15;96031.06;5049798;28;20115;-73
2022/10/12 10:27:44;;;;;;;;;;;;;;;23.02;46.75;96031.41;5049930;28;20048;-74
2022/10/12 10:30:20;;;;;;;;;;;;;;;22.22;47.85;96036.53;5048326;28;20123;-74
2022/10/12 10:32:46;;;;;;;;;;;;;;;22.71;47.18;96030.47;5048311;28;20013;-75
2022/10/12 10:35:11;;;;;;;;;;;;;;;23.41;46.28;96033.97;5048634;28;20402;-76
2022/10/12 10:37:41;;;;;;;;;;;;;;;23.90;45.65;96031.19;5048521;28;20018;-74
2022/10/12 10:40:15;;;;;;;;;;;;;;;23.61;44.32;96021.88;5048006;28;20010;-74
2022/10/12 10:42:40;;;;;;;;;;;;;;;23.99;43.84;96023.56;5038720;28;20016;-73
2022/10/12 10:45:07;;;;;;;;;;;;;;;24.23;43.49;96022.31;5045298;28;20100;-74
2022/10/12 10:47:33;;;;;;;;;;;;;;;22.75;44.82;96027.81;5028562;28;20014;-74
2022/10/12 10:50:04;;;;;;;;;;;;;;;21.83;46.92;96018.66;5028216;28;20060;-74
2022/10/12 10:52:30;;;;;;;;;;;;;;;21.37;48.10;96015.69;5036495;28;20168;-73
2022/10/12 10:55:05;;;;;;;;;;;;;;;22.08;46.75;96022.66;5048214;28;20059;-73
2022/10/12 10:57:32;;;;;;;;;;;;;;;22.11;46.15;96026.59;5048822;28;20389;-74
2022/10/12 11:00:01;;;;;;;;;;;;;;;22.85;45.84;96024.50;5052051;28;20016;-74
2022/10/12 11:02:44;;;;;;;;;;;;;;;22.88;44.86;96009.44;5052081;28;20665;-74
2022/10/12 11:05:09;;;;;;;;;;;;;;;22.62;45.47;96019.06;5051382;28;20013;-73
2022/10/12 11:07:38;;;;;;;;;;;;;;;22.86;45.04;96012.50;5052164;28;20613;-74
2022/10/12 11:10:10;;;;;;;;;;;;;;;23.23;45.05;96014.69;5053012;28;20005;-74
2022/10/12 11:12:39;;;;;;;;;;;;;;;23.40;43.91;96014.19;5052283;28;20013;-74
2022/10/12 11:15:15;;;;;;;;;;;;;;;23.57;43.31;96010.94;5053150;28;20009;-73
2022/10/12 11:17:44;;;;;;;;;;;;;;;23.50;43.73;96004.66;5052004;28;20029;-74
2022/10/12 11:20:15;;;;;;;;;;;;;;;23.35;43.62;96009.84;5053008;28;20100;-75
2022/10/12 11:22:46;;;;;;;;;;;;;;;23.24;43.87;96005.41;5052339;28;20033;-74
2022/10/12 11:25:11;;;;;;;;;;;;;;;21.51;47.88;96010.63;5053190;28;20361;-74
2022/10/12 11:27:38;;;;;;;;;;;;;;;20.38;52.57;96009.34;5051635;28;20010;-75
2022/10/12 11:30:05;;;;;;;;;;;;;;;21.33;49.71;95998.59;5051482;28;20040;-74
2022/10/12 11:32:33;;;;;;;;;;;;;;;21.37;49.59;95994.03;5052218;28;20025;-73
2022/10/12 11:35:01;;;;;;;;;;;;;;;21.54;48.88;95989.00;5068352;28;20010;-74
2022/10/12 11:37:35;;;;;;;;;;;;;;;20.93;51.03;95989.50;5052574;28;20131;-74
2022/10/12 11:40:01;;;;;;;;;;;;;;;20.61;52.07;95987.94;5052697;28;20006;-75
2022/10/12 11:42:29;;;;;;;;;;;;;;;21.41;49.63;95986.81;5052070;28;20010;-75
2022/10/12 11:44:55;;;;;;;;;;;;;;;21.74;48.70;95991.75;5051187;28;20462;-73
2022/10/12 11:47:33;;;;;;;;;;;;;;;21.88;48.37;95992.06;5052607;28;20009;-73
2022/10/12 11:50:01;;;;;;;;;;;;;;;19.62;53.65;95990.25;5050778;28;20053;-73
2022/10/12 11:52:35;;;;;;;;;;;;;;;19.95;53.28;95989.22;5051617;28;20020;-74
2022/10/12 11:55:03;;;;;;;;;;;;;;;20.46;52.53;95989.47;5052638;28;20012;-73
2022/10/12 11:57:30;;;;;;;;;;;;;;;21.56;49.94;95979.78;5052251;28;20112;-74
2022/10/12 12:00:02;;;;;;;;;;;;;;;21.96;48.92;95982.16;5051782;28;20005;-73
2022/10/12 12:02:27;;;;;;;;;;;;;;;20.95;50.25;95984.56;5051473;28;20060;-74
2022/10/12 12:04:53;;;;;;;;;;;;;;;19.45;54.31;95987.78;5050675;28;20490;-73
2022/10/12 12:07:37;;;;;;;;;;;;;;;20.26;52.75;95983.13;5052261;28;20036;-72
2022/10/12 12:10:21;;;;;;;;;;;;;;;20.09;53.43;95980.75;5050156;28;20104;-73
2022/10/12 12:13:06;;;;;;;;;;;;;;;20.56;51.71;95978.16;5051029;28;20151;-73
2022/10/12 12:15:32;;;;;;;;;;;;;;;19.39;55.09;95976.41;5050509;28;20017;-73
2022/10/12 12:18:09;;;;;;;;;;;;;;;19.79;54.02;95972.19;5051817;28;20014;-73
2022/10/12 12:20:55;;;;;;;;;;;;;;;20.77;51.37;95967.09;5050795;28;20390;-73
2022/10/12 12:23:23;;;;;;;;;;;;;;;20.40;51.86;95969.22;5043373;28;20116;-73
2022/10/12 12:26:14;;;;;;;;;;;;;;;19.10;55.58;95971.28;5051619;28;20006;-72
2022/10/12 12:28:41;;;;;;;;;;;;;;;20.05;53.31;95974.47;5050132;28;20018;-73
2022/10/12 12:31:21;;;;;;;;;;;;;;;20.22;52.67;95969.56;5033098;28;20020;-73
2022/10/12 12:33:47;;;;;;;;;;;;;;;20.75;51.61;95963.97;5031934;28;20006;-74
2022/10/12 12:36:30;;;;;;;;;;;;;;;20.62;51.76;95967.88;5031968;28;20006;-74
2022/10/12 12:38:56;;;;;;;;;;;;;;;21.80;49.55;95974.91;5031062;28;20078;-73
2022/10/12 12:41:26;;;;;;;;;;;;;;;22.39;47.98;95969.47;5036819;28;20006;-74
2022/10/12 12:43:56;;;;;;;;;;;;;;;22.36;46.91;95968.25;5050207;28;20010;-73
2022/10/12 12:46:23;;;;;;;;;;;;;;;22.62;46.24;95970.25;5050229;28;20009;-73
2022/10/12 12:48:48;;;;;;;;;;;;;;;23.13;45.37;95978.09;5049683;28;20478;-73
2022/10/12 12:51:22;;;;;;;;;;;;;;;23.06;44.90;95970.63;5050462;28;20009;-73